createdAt,value
2023-04-11T00:00:11.210Z,5.10
2023-04-11T00:02:42.562Z,4.82
2023-04-11T00:05:12.191Z,5.09
2023-04-11T00:07:40.812Z,4.93
2023-04-11T00:10:11.707Z,5.10
2023-04-11T00:12:40.072Z,5.20
2023-04-11T00:15:12.460Z,5.21
2023-04-11T00:17:41.638Z,5.33
2023-04-11T00:20:11.620Z,5.21
2023-04-11T00:22:40.063Z,5.00
2023-04-11T00:25:09.339Z,5.15
2023-04-11T00:27:39.513Z,5.17
2023-04-11T00:30:09.525Z,5.01
2023-04-11T00:32:40.367Z,5.07
2023-04-11T00:35:10.193Z,5.02
2023-04-11T00:37:38.859Z,5.02
2023-04-11T00:40:09.172Z,4.96
2023-04-11T00:42:39.920Z,4.86
2023-04-11T00:45:10.005Z,4.77
2023-04-11T00:47:38.732Z,4.79
2023-04-11T00:50:08.944Z,4.74
2023-04-11T00:52:39.486Z,4.69
2023-04-11T00:55:09.179Z,4.64
2023-04-11T00:57:39.553Z,4.69
2023-04-11T01:00:11.706Z,4.63
2023-04-11T01:02:43.583Z,4.68
2023-04-11T01:05:13.283Z,4.71
2023-04-11T01:07:44.859Z,4.80
2023-04-11T01:10:15.054Z,4.56
2023-04-11T01:12:46.733Z,4.51
2023-04-11T01:15:15.401Z,4.59
2023-04-11T01:17:44.191Z,4.56
2023-04-11T01:20:13.994Z,4.50
2023-04-11T01:22:44.039Z,4.40
2023-04-11T01:25:15.970Z,4.53
2023-04-11T01:27:44.999Z,4.36
2023-04-11T01:30:14.014Z,4.38
2023-04-11T01:32:45.457Z,4.30
2023-04-11T01:35:14.847Z,4.35
2023-04-11T01:37:43.333Z,4.32
2023-04-11T01:40:15.342Z,4.25
2023-04-11T01:42:44.859Z,4.38
2023-04-11T01:45:14.324Z,4.43
2023-04-11T01:47:42.859Z,4.40
2023-04-11T01:50:12.311Z,4.57
2023-04-11T01:52:40.836Z,4.56
2023-04-11T01:55:10.832Z,4.67
2023-04-11T01:57:40.962Z,4.63
2023-04-11T02:00:12.027Z,4.56
2023-04-11T02:02:43.173Z,4.60
2023-04-11T02:05:11.977Z,4.42
2023-04-11T02:07:41.226Z,4.30
2023-04-11T02:10:11.103Z,4.37
2023-04-11T02:12:40.956Z,4.26
2023-04-11T02:15:10.321Z,4.02
2023-04-11T02:17:45.593Z,4.21
2023-04-11T02:20:15.309Z,4.12
2023-04-11T02:22:43.794Z,4.17
2023-04-11T02:25:12.101Z,3.99
2023-04-11T02:27:43.498Z,4.21
2023-04-11T02:30:12.559Z,4.02
2023-04-11T02:32:41.039Z,4.09
2023-04-11T02:35:10.260Z,3.94
2023-04-11T02:37:40.378Z,3.94
2023-04-11T02:40:10.452Z,4.05
2023-04-11T02:42:43.507Z,4.00
2023-04-11T02:45:13.043Z,4.06
2023-04-11T02:47:41.743Z,4.07
2023-04-11T02:50:11.618Z,3.85
2023-04-11T02:52:49.557Z,3.63
2023-04-11T02:55:23.227Z,3.80
2023-04-11T02:57:53.860Z,4.03
2023-04-11T03:00:23.390Z,3.91
2023-04-11T03:02:59.176Z,4.28
2023-04-11T03:05:28.675Z,4.09
2023-04-11T03:07:58.962Z,4.46
2023-04-11T03:10:29.711Z,4.36
2023-04-11T03:13:00.481Z,4.38
2023-04-11T03:15:28.853Z,4.41
2023-04-11T03:17:57.608Z,4.43
2023-04-11T03:20:26.447Z,4.30
2023-04-11T03:22:55.324Z,4.32
2023-04-11T03:25:24.223Z,4.32
2023-04-11T03:27:53.576Z,4.25
2023-04-11T03:30:23.284Z,4.35
2023-04-11T03:32:53.189Z,4.25
2023-04-11T03:35:21.918Z,4.14
2023-04-11T03:37:52.107Z,4.37
2023-04-11T03:40:20.766Z,4.36
2023-04-11T03:42:59.571Z,4.18
2023-04-11T03:45:32.779Z,4.39
2023-04-11T03:48:04.122Z,4.31
2023-04-11T03:50:46.636Z,4.38
2023-04-11T03:53:17.474Z,4.18
2023-04-11T03:55:49.226Z,3.86
2023-04-11T03:58:19.959Z,4.02
2023-04-11T04:00:49.806Z,4.03
2023-04-11T04:03:18.556Z,3.94
2023-04-11T04:05:47.343Z,3.96
2023-04-11T04:08:16.334Z,3.65
2023-04-11T04:10:47.957Z,3.75
2023-04-11T04:13:16.912Z,3.62
2023-04-11T04:15:53.165Z,3.68
2023-04-11T04:18:26.144Z,3.70
2023-04-11T04:20:54.560Z,3.60
2023-04-11T04:23:25.941Z,3.68
2023-04-11T04:26:07.154Z,3.53
2023-04-11T04:28:37.748Z,3.48
2023-04-11T04:31:08.503Z,3.54
2023-04-11T04:33:46.613Z,3.49
2023-04-11T04:36:26.933Z,3.27
2023-04-11T04:38:57.600Z,3.46
2023-04-11T04:41:26.093Z,3.53
2023-04-11T04:44:01.045Z,3.47
2023-04-11T04:46:37.733Z,3.06
2023-04-11T04:49:08.968Z,3.38
2023-04-11T04:51:38.628Z,3.30
2023-04-11T04:54:07.677Z,3.37
2023-04-11T04:56:36.129Z,3.31
2023-04-11T04:59:05.285Z,3.51
2023-04-11T05:01:40.002Z,3.32
2023-04-11T05:04:10.740Z,3.40
2023-04-11T05:06:50.781Z,3.46
2023-04-11T05:09:19.961Z,3.45
2023-04-11T05:11:50.403Z,3.44
2023-04-11T05:14:19.426Z,3.51
2023-04-11T05:16:49.279Z,3.51
2023-04-11T05:19:17.668Z,3.54
2023-04-11T05:21:48.945Z,3.56
2023-04-11T05:24:17.349Z,3.39
2023-04-11T05:26:45.885Z,3.34
2023-04-11T05:29:18.223Z,3.53
2023-04-11T05:31:48.197Z,3.60
2023-04-11T05:34:16.817Z,3.59
2023-04-11T05:36:48.446Z,3.61
2023-04-11T05:39:16.943Z,3.66
2023-04-11T05:41:45.358Z,3.71
2023-04-11T05:44:13.729Z,3.71
2023-04-11T05:46:42.738Z,3.70
2023-04-11T05:49:12.849Z,3.79
2023-04-11T05:51:41.217Z,4.00
2023-04-11T05:54:09.585Z,4.15
2023-04-11T05:56:39.806Z,4.18
2023-04-11T05:59:08.336Z,3.98
2023-04-11T06:01:39.723Z,3.86
2023-04-11T06:04:08.313Z,4.09
2023-04-11T06:06:38.258Z,4.03
2023-04-11T06:09:09.152Z,4.07
2023-04-11T06:11:37.675Z,4.42
2023-04-11T06:14:06.210Z,4.56
2023-04-11T06:16:36.690Z,4.56
2023-04-11T06:19:06.042Z,4.55
2023-04-11T06:21:34.412Z,4.81
2023-04-11T06:24:08.820Z,5.18
2023-04-11T06:26:37.587Z,5.22
2023-04-11T06:29:07.555Z,5.30
2023-04-11T06:31:36.220Z,5.22
2023-04-11T06:34:04.895Z,5.28
2023-04-11T06:36:33.566Z,5.08
2023-04-11T06:39:01.898Z,4.96
2023-04-11T06:41:32.057Z,5.05
2023-04-11T06:44:00.520Z,5.27
2023-04-11T06:46:29.055Z,5.22
2023-04-11T06:48:57.548Z,5.38
2023-04-11T06:51:26.015Z,5.52
2023-04-11T06:53:54.895Z,5.35
2023-04-11T06:56:23.497Z,5.39
2023-04-11T06:58:53.440Z,5.52
2023-04-11T07:01:25.501Z,5.51
2023-04-11T07:03:54.185Z,5.81
2023-04-11T07:06:22.729Z,6.07
2023-04-11T07:08:53.503Z,6.00
2023-04-11T07:11:22.002Z,5.87
2023-04-11T07:13:52.216Z,5.86
2023-04-11T07:16:20.618Z,5.83
2023-04-11T07:18:49.881Z,6.14
2023-04-11T07:21:18.161Z,6.09
2023-04-11T07:23:46.544Z,6.14
2023-04-11T07:26:16.946Z,6.17
2023-04-11T07:28:45.385Z,6.60
2023-04-11T07:31:15.532Z,6.26
2023-04-11T07:33:45.209Z,6.26
2023-04-11T07:36:13.902Z,6.32
2023-04-11T07:38:45.279Z,6.19
2023-04-11T07:41:13.751Z,6.42
2023-04-11T07:43:42.342Z,6.54
2023-04-11T07:46:12.108Z,6.39
2023-04-11T07:48:44.080Z,6.26
2023-04-11T07:51:13.738Z,6.49
2023-04-11T07:53:42.312Z,6.26
2023-04-11T07:56:11.667Z,6.62
2023-04-11T07:58:40.238Z,6.77
2023-04-11T08:01:20.063Z,6.68
2023-04-11T08:03:49.967Z,6.34
2023-04-11T08:06:18.496Z,6.32
2023-04-11T08:08:47.773Z,6.48
2023-04-11T08:11:16.584Z,7.01
2023-04-11T08:13:45.412Z,7.30
2023-04-11T08:16:15.461Z,7.25
2023-04-11T08:18:45.767Z,7.20
2023-04-11T08:21:15.808Z,7.49
2023-04-11T08:23:44.241Z,7.41
2023-04-11T08:26:13.232Z,8.02
2023-04-11T08:28:43.534Z,8.40
2023-04-11T08:31:13.474Z,8.92
2023-04-11T08:33:42.528Z,8.53
2023-04-11T08:36:12.247Z,8.59
2023-04-11T08:38:42.774Z,8.50
2023-04-11T08:41:11.542Z,8.28
2023-04-11T08:43:42.517Z,8.10
2023-04-11T08:46:11.877Z,7.69
2023-04-11T08:48:41.875Z,7.11
2023-04-11T08:51:10.198Z,6.82
2023-04-11T08:53:41.744Z,6.87
2023-04-11T08:56:17.001Z,6.64
2023-04-11T08:58:45.695Z,6.62
2023-04-11T09:01:28.742Z,6.57
2023-04-11T09:03:57.775Z,6.93
2023-04-11T09:06:27.525Z,7.46
2023-04-11T09:08:57.693Z,7.78
2023-04-11T09:11:26.208Z,8.30
2023-04-11T09:14:08.546Z,8.75
2023-04-11T09:16:37.796Z,8.87
2023-04-11T09:19:25.482Z,8.79
2023-04-11T09:21:54.609Z,8.67
2023-04-11T09:24:26.401Z,8.26
2023-04-11T09:27:09.972Z,7.66
2023-04-11T09:29:41.457Z,7.72
2023-04-11T09:32:26.609Z,7.84
2023-04-11T09:35:10.737Z,8.46
2023-04-11T09:37:47.352Z,8.66
2023-04-11T09:40:22.785Z,8.91
2023-04-11T09:42:58.871Z,8.98
2023-04-11T09:45:29.320Z,8.81
2023-04-11T09:48:00.735Z,8.81
2023-04-11T09:50:29.700Z,8.68
2023-04-11T09:52:59.412Z,9.01
2023-04-11T09:55:29.229Z,9.02
2023-04-11T09:57:57.658Z,9.20
2023-04-11T10:00:30.028Z,9.36
2023-04-11T10:02:58.632Z,9.32
2023-04-11T10:05:29.201Z,9.61
2023-04-11T10:08:05.714Z,9.56
2023-04-11T10:10:36.816Z,9.64
2023-04-11T10:13:42.239Z,9.39
2023-04-11T10:16:13.415Z,9.27
2023-04-11T10:19:33.159Z,9.05
2023-04-11T10:22:01.496Z,8.73
2023-04-11T10:24:29.923Z,8.66
2023-04-11T10:27:03.293Z,8.59
2023-04-11T10:29:52.554Z,8.86
2023-04-11T10:32:23.846Z,9.14
2023-04-11T10:35:23.929Z,9.24
2023-04-11T10:37:52.303Z,9.47
2023-04-11T10:40:21.482Z,9.92
2023-04-11T10:42:51.626Z,10.21
2023-04-11T10:45:24.293Z,10.00
2023-04-11T10:48:12.035Z,9.97
2023-04-11T10:50:45.368Z,10.39
2023-04-11T10:53:37.593Z,9.99
2023-04-11T10:56:06.755Z,9.93
2023-04-11T10:58:40.988Z,9.81
2023-04-11T11:01:37.119Z,10.01
2023-04-11T11:04:11.739Z,10.64
2023-04-11T11:06:47.257Z,11.14
2023-04-11T11:09:24.168Z,10.56
2023-04-11T11:12:14.877Z,10.78
2023-04-11T11:14:46.356Z,11.07
2023-04-11T11:17:16.765Z,11.40
2023-04-11T11:19:46.230Z,11.14
2023-04-11T11:22:18.689Z,10.94
2023-04-11T11:24:47.030Z,10.85
2023-04-11T11:27:21.553Z,10.54
2023-04-11T11:29:51.918Z,10.34
2023-04-11T11:32:25.325Z,10.59
2023-04-11T11:34:54.197Z,10.97
2023-04-11T11:37:23.215Z,10.98
2023-04-11T11:39:52.294Z,10.91
2023-04-11T11:42:21.017Z,10.79
2023-04-11T11:44:51.008Z,10.64
2023-04-11T11:47:19.516Z,11.01
2023-04-11T11:49:49.434Z,10.95
2023-04-11T11:52:33.924Z,10.99
2023-04-11T11:55:03.380Z,10.84
2023-04-11T11:57:31.898Z,10.51
2023-04-11T12:00:06.687Z,10.67
2023-04-11T12:02:36.938Z,10.75
2023-04-11T12:05:08.654Z,10.55
2023-04-11T12:07:39.589Z,10.79
2023-04-11T12:10:11.981Z,10.87
2023-04-11T12:12:42.284Z,11.02
2023-04-11T12:15:14.356Z,11.42
2023-04-11T12:17:43.244Z,11.27
2023-04-11T12:20:12.189Z,11.27
2023-04-11T12:22:40.787Z,11.45
2023-04-11T12:25:11.941Z,10.92
2023-04-11T12:27:42.126Z,10.98
2023-04-11T12:30:15.219Z,10.92
2023-04-11T12:32:44.482Z,10.94
2023-04-11T12:35:13.964Z,11.08
2023-04-11T12:37:42.630Z,11.20
2023-04-11T12:40:12.647Z,11.15
2023-04-11T12:42:53.519Z,11.47
2023-04-11T12:45:26.407Z,11.53
2023-04-11T12:47:55.276Z,11.44
2023-04-11T12:50:24.481Z,11.77
2023-04-11T12:52:53.333Z,11.89
2023-04-11T12:55:22.784Z,11.84
2023-04-11T12:57:51.188Z,11.69
2023-04-11T13:00:20.653Z,11.59
2023-04-11T13:02:50.643Z,11.46
2023-04-11T13:05:19.857Z,11.49
2023-04-11T13:07:48.309Z,11.49
2023-04-11T13:10:17.157Z,11.35
2023-04-11T13:12:46.438Z,10.90
2023-04-11T13:15:17.169Z,10.72
2023-04-11T13:17:46.219Z,11.13
2023-04-11T13:20:15.942Z,11.17
2023-04-11T13:22:44.778Z,10.86
2023-04-11T13:25:13.294Z,10.76
2023-04-11T13:27:42.768Z,11.19
2023-04-11T13:30:12.731Z,11.40
2023-04-11T13:32:41.501Z,11.48
2023-04-11T13:35:11.076Z,11.14
2023-04-11T13:37:40.899Z,11.40
2023-04-11T13:40:12.289Z,11.65
2023-04-11T13:42:40.959Z,11.44
2023-04-11T13:45:10.328Z,11.35
2023-04-11T13:47:43.116Z,11.19
2023-04-11T13:50:11.923Z,11.32
2023-04-11T13:52:42.806Z,11.33
2023-04-11T13:55:11.667Z,11.32
2023-04-11T13:57:40.026Z,11.53
2023-04-11T14:00:12.139Z,11.49
2023-04-11T14:02:41.798Z,11.72
2023-04-11T14:05:11.320Z,11.65
2023-04-11T14:07:41.177Z,11.61
2023-04-11T14:10:10.764Z,12.09
2023-04-11T14:12:41.982Z,12.04
2023-04-11T14:15:12.039Z,11.93
2023-04-11T14:17:40.652Z,12.15
2023-04-11T14:20:11.676Z,12.38
2023-04-11T14:22:42.193Z,12.35
2023-04-11T14:25:11.646Z,12.33
2023-04-11T14:27:42.580Z,12.49
2023-04-11T14:30:13.435Z,12.80
2023-04-11T14:32:43.238Z,12.55
2023-04-11T14:35:11.792Z,12.70
2023-04-11T14:37:41.998Z,12.76
2023-04-11T14:40:11.389Z,12.83
2023-04-11T14:42:39.954Z,12.66
2023-04-11T14:45:09.434Z,12.47
2023-04-11T14:47:39.791Z,12.40
2023-04-11T14:50:09.952Z,12.39
2023-04-11T14:52:38.997Z,12.40
2023-04-11T14:55:11.263Z,12.48
2023-04-11T14:57:57.810Z,12.33
2023-04-11T15:00:26.334Z,12.39
2023-04-11T15:02:57.854Z,12.62
2023-04-11T15:05:26.920Z,12.42
2023-04-11T15:07:55.503Z,11.82
2023-04-11T15:10:26.837Z,11.83
2023-04-11T15:12:55.223Z,11.84
2023-04-11T15:15:24.663Z,11.89
2023-04-11T15:18:20.136Z,11.73
2023-04-11T15:20:48.530Z,11.58
2023-04-11T15:23:17.001Z,11.84
2023-04-11T15:25:48.232Z,12.09
2023-04-11T15:28:16.640Z,12.43
2023-04-11T15:30:49.670Z,12.43
2023-04-11T15:33:19.165Z,12.49
2023-04-11T15:35:47.721Z,12.54
2023-04-11T15:38:17.648Z,12.21
2023-04-11T15:40:50.937Z,12.30
2023-04-11T15:43:19.556Z,12.27
2023-04-11T15:45:48.122Z,12.10
2023-04-11T15:48:16.995Z,12.14
2023-04-11T15:50:46.515Z,12.20
2023-04-11T15:53:14.996Z,12.38
2023-04-11T15:55:44.457Z,12.10
2023-04-11T15:58:15.022Z,11.90
2023-04-11T16:00:43.835Z,12.08
2023-04-11T16:03:12.777Z,12.30
2023-04-11T16:05:43.231Z,12.27
2023-04-11T16:08:11.932Z,12.45
2023-04-11T16:10:40.971Z,12.37
2023-04-11T16:13:09.332Z,12.31
2023-04-11T16:15:39.144Z,12.07
2023-04-11T16:18:07.788Z,11.91
2023-04-11T16:20:36.513Z,12.09
2023-04-11T16:23:04.955Z,12.05
2023-04-11T16:25:33.714Z,12.02
2023-04-11T16:28:02.115Z,11.85
2023-04-11T16:30:30.514Z,11.73
2023-04-11T16:33:00.290Z,11.66
2023-04-11T16:35:28.782Z,11.68
2023-04-11T16:37:57.254Z,11.76
2023-04-11T16:40:25.976Z,11.74
2023-04-11T16:42:54.702Z,11.79
2023-04-11T16:45:23.098Z,11.50
2023-04-11T16:47:51.600Z,11.30
2023-04-11T16:50:21.945Z,11.39
2023-04-11T16:52:50.299Z,11.45
2023-04-11T16:55:19.039Z,11.22
2023-04-11T16:57:47.671Z,11.29
2023-04-11T17:00:20.178Z,11.22
2023-04-11T17:02:48.835Z,10.98
2023-04-11T17:05:18.923Z,10.78
2023-04-11T17:07:48.724Z,10.79
2023-04-11T17:10:17.462Z,10.86
2023-04-11T17:12:45.936Z,10.77
2023-04-11T17:15:14.255Z,10.70
2023-04-11T17:17:44.408Z,10.59
2023-04-11T17:20:13.304Z,10.56
2023-04-11T17:22:44.375Z,10.67
2023-04-11T17:25:14.258Z,10.38
2023-04-11T17:27:42.961Z,10.42
2023-04-11T17:30:12.225Z,10.24
2023-04-11T17:32:40.955Z,10.25
2023-04-11T17:35:10.783Z,10.03
2023-04-11T17:37:39.853Z,10.01
2023-04-11T17:40:14.500Z,10.05
2023-04-11T17:42:45.948Z,9.94
2023-04-11T17:45:18.578Z,10.03
2023-04-11T17:47:47.929Z,9.75
2023-04-11T17:50:17.248Z,9.71
2023-04-11T17:52:48.404Z,9.39
2023-04-11T17:55:19.073Z,8.68
2023-04-11T17:57:50.135Z,8.32
2023-04-11T18:00:22.846Z,8.42
2023-04-11T18:02:54.573Z,8.46
2023-04-11T18:05:26.228Z,8.51
2023-04-11T18:07:57.389Z,8.28
2023-04-11T18:10:27.262Z,8.36
2023-04-11T18:12:58.664Z,8.30
2023-04-11T18:15:28.237Z,8.36
2023-04-11T18:17:56.773Z,8.41
2023-04-11T18:20:25.842Z,8.36
2023-04-11T18:22:56.122Z,8.40
2023-04-11T18:25:25.522Z,8.36
2023-04-11T18:27:53.958Z,8.49
2023-04-11T18:30:23.820Z,8.34
2023-04-11T18:32:54.098Z,8.28
2023-04-11T18:35:22.784Z,8.05
2023-04-11T18:37:51.672Z,8.07
2023-04-11T18:40:20.007Z,8.14
2023-04-11T18:42:52.699Z,8.02
2023-04-11T18:45:24.125Z,8.11
2023-04-11T18:47:52.741Z,8.04
2023-04-11T18:50:22.553Z,7.84
2023-04-11T18:52:55.573Z,8.00
2023-04-11T18:55:25.863Z,8.29
2023-04-11T18:57:58.520Z,8.43
2023-04-11T19:00:31.180Z,8.22
2023-04-11T19:03:00.079Z,8.42
2023-04-11T19:05:29.392Z,8.30
2023-04-11T19:07:57.973Z,8.58
2023-04-11T19:10:26.388Z,8.54
2023-04-11T19:12:54.804Z,8.52
2023-04-11T19:15:23.724Z,8.60
2023-04-11T19:17:53.473Z,8.50
2023-04-11T19:20:22.668Z,8.35
2023-04-11T19:22:52.103Z,8.33
2023-04-11T19:25:20.841Z,8.23
2023-04-11T19:27:49.779Z,7.94
2023-04-11T19:30:18.329Z,8.04
2023-04-11T19:32:47.779Z,8.01
2023-04-11T19:35:21.426Z,8.14
2023-04-11T19:37:50.029Z,7.94
2023-04-11T19:40:23.148Z,8.04
2023-04-11T19:42:52.467Z,8.00
2023-04-11T19:45:22.125Z,7.75
2023-04-11T19:47:50.852Z,8.04
2023-04-11T19:50:22.836Z,7.88
2023-04-11T19:52:51.578Z,7.90
2023-04-11T19:55:20.072Z,7.78
2023-04-11T19:57:48.465Z,7.54
2023-04-11T20:00:17.870Z,7.76
2023-04-11T20:02:48.499Z,7.77
2023-04-11T20:05:19.845Z,7.50
2023-04-11T20:07:49.610Z,7.62
2023-04-11T20:10:18.155Z,7.66
2023-04-11T20:12:46.870Z,7.59
2023-04-11T20:15:15.840Z,7.45
2023-04-11T20:17:46.025Z,7.23
2023-04-11T20:20:15.672Z,7.28
2023-04-11T20:22:45.909Z,7.42
2023-04-11T20:25:15.972Z,7.54
2023-04-11T20:27:44.649Z,7.53
2023-04-11T20:30:15.535Z,7.71
2023-04-11T20:32:44.552Z,7.81
2023-04-11T20:35:13.328Z,7.85
2023-04-11T20:37:43.527Z,7.65
2023-04-11T20:40:14.124Z,7.81
2023-04-11T20:42:45.463Z,7.61
2023-04-11T20:45:16.283Z,7.48
2023-04-11T20:47:47.669Z,7.48
2023-04-11T20:50:19.117Z,7.70
2023-04-11T20:52:50.544Z,7.51
2023-04-11T20:55:19.082Z,7.63
2023-04-11T20:57:48.889Z,7.54
2023-04-11T21:00:18.817Z,7.63
2023-04-11T21:02:50.119Z,7.59
2023-04-11T21:05:21.376Z,7.68
2023-04-11T21:07:50.083Z,7.69
2023-04-11T21:10:20.905Z,7.32
2023-04-11T21:12:53.988Z,7.33
2023-04-11T21:15:23.287Z,7.14
2023-04-11T21:17:52.288Z,7.09
2023-04-11T21:20:22.389Z,7.10
2023-04-11T21:22:54.067Z,6.88
2023-04-11T21:25:24.385Z,6.75
2023-04-11T21:27:54.265Z,6.58
2023-04-11T21:30:22.898Z,6.48
2023-04-11T21:32:51.992Z,6.42
2023-04-11T21:35:20.703Z,6.35
2023-04-11T21:37:49.389Z,6.36
2023-04-11T21:40:18.088Z,6.27
2023-04-11T21:42:46.471Z,6.24
2023-04-11T21:45:16.225Z,6.25
2023-04-11T21:47:44.649Z,6.36
2023-04-11T21:50:13.413Z,6.23
2023-04-11T21:52:41.716Z,6.36
2023-04-11T21:55:11.542Z,6.10
2023-04-11T21:57:40.172Z,5.99
2023-04-11T22:00:11.932Z,5.85
2023-04-11T22:02:42.351Z,6.13
2023-04-11T22:05:12.859Z,5.99
2023-04-11T22:07:50.198Z,6.28
2023-04-11T22:10:22.958Z,6.17
2023-04-11T22:12:53.999Z,5.93
2023-04-11T22:15:24.212Z,5.83
2023-04-11T22:17:54.351Z,5.82
2023-04-11T22:20:23.143Z,5.86
2023-04-11T22:22:51.443Z,6.00
2023-04-11T22:25:22.570Z,5.94
2023-04-11T22:27:54.390Z,5.97
2023-04-11T22:30:24.407Z,5.88
2023-04-11T22:32:55.512Z,5.66
2023-04-11T22:35:24.800Z,5.83
2023-04-11T22:37:55.452Z,5.88
2023-04-11T22:40:23.910Z,5.86
2023-04-11T22:42:52.806Z,5.91
2023-04-11T22:45:22.789Z,5.47
2023-04-11T22:47:56.824Z,5.63
2023-04-11T22:50:25.238Z,5.50
2023-04-11T22:52:54.821Z,5.42
2023-04-11T22:55:24.742Z,5.43
2023-04-11T22:57:53.320Z,5.44
2023-04-11T23:00:23.779Z,5.32
2023-04-11T23:02:53.563Z,5.30
2023-04-11T23:05:22.126Z,5.35
2023-04-11T23:07:51.371Z,5.25
2023-04-11T23:10:19.983Z,5.33
2023-04-11T23:12:49.332Z,5.36
2023-04-11T23:15:18.424Z,5.30
2023-04-11T23:17:46.796Z,5.17
2023-04-11T23:20:17.650Z,5.43
2023-04-11T23:22:46.269Z,5.00
2023-04-11T23:25:15.660Z,5.22
2023-04-11T23:27:45.079Z,4.67
2023-04-11T23:30:15.184Z,5.21
2023-04-11T23:32:43.578Z,5.00
2023-04-11T23:35:12.840Z,5.24
2023-04-11T23:37:42.633Z,5.13
2023-04-11T23:40:14.095Z,5.22
2023-04-11T23:42:43.135Z,5.01
2023-04-11T23:45:14.238Z,5.09
2023-04-11T23:47:42.703Z,5.13
2023-04-11T23:50:12.727Z,4.87
2023-04-11T23:52:42.823Z,5.01
2023-04-11T23:55:12.325Z,5.13
2023-04-11T23:57:40.977Z,5.26
